Time;durP1;ratioP1;P1;durP2;ratioP2;P2;SDS_P1;SDS_P2;PMS_P1;PMS_P2;Temp;Humidity;BMP_temperature;BMP_pressure;BME280_temperature;BME280_humidity;BME280_pressure;Samples;Min_cycle;Max_cycle;Signal;HPM_P1;HPM_P2
2022/01/31 00:00:58;;;;;;;46.33;31.98;;;;;;;;;;12545554;28;20036;-74
2022/01/31 00:07:03;;;;;;;38.25;26.35;;;;;;;;;;12528306;28;20054;-74
2022/01/31 00:13:12;;;;;;;33.50;21.17;;;;;;;;;;12528159;28;20033;-74
2022/01/31 00:19:14;;;;;;;43.67;26.13;;;;;;;;;;12544646;28;20037;-74
2022/01/31 00:25:17;;;;;;;31.92;23.50;;;;;;;;;;12544545;28;20029;-74
2022/01/31 00:31:21;;;;;;;36.15;25.92;;;;;;;;;;12543921;28;20508;-74
2022/01/31 00:37:23;;;;;;;39.70;30.48;;;;;;;;;;12543840;28;20063;-74
2022/01/31 00:43:25;;;;;;;39.43;22.40;;;;;;;;;;12526571;28;20048;-74
2022/01/31 00:49:36;;;;;;;39.25;25.05;;;;;;;;;;12543417;28;20178;-75
2022/01/31 00:55:38;;;;;;;37.15;26.65;;;;;;;;;;12543294;28;20032;-74
2022/01/31 01:01:41;;;;;;;42.88;27.05;;;;;;;;;;12542865;28;20036;-74
2022/01/31 01:14:08;;;;;;;32.85;22.92;;;;;;;;;;12619868;27;20489;-75
2022/01/31 01:20:11;;;;;;;36.97;24.27;;;;;;;;;;12569345;28;20029;-75
2022/01/31 01:26:13;;;;;;;42.13;26.53;;;;;;;;;;12569006;28;20040;-75
2022/01/31 01:32:15;;;;;;;27.50;18.55;;;;;;;;;;12568781;28;20040;-75
2022/01/31 01:38:19;;;;;;;32.80;19.87;;;;;;;;;;12568089;28;20040;-75
2022/01/31 01:44:38;;;;;;;40.80;25.35;;;;;;;;;;12568345;28;20271;-75
2022/01/31 01:50:40;;;;;;;50.33;34.25;;;;;;;;;;12567708;28;20044;-74
2022/01/31 01:56:42;;;;;;;43.50;25.70;;;;;;;;;;12567098;28;20389;-74
2022/01/31 02:08:56;;;;;;;32.45;24.13;;;;;;;;;;12618319;28;20543;-75
2022/01/31 02:15:05;;;;;;;29.30;20.40;;;;;;;;;;12569189;28;20028;-75
2022/01/31 02:21:29;;;;;;;26.10;18.75;;;;;;;;;;12572108;28;20032;-75
2022/01/31 02:27:37;;;;;;;37.58;23.13;;;;;;;;;;12552370;28;20047;-75
2022/01/31 02:33:42;;;;;;;29.70;20.58;;;;;;;;;;12561077;28;20040;-74
2022/01/31 02:39:44;;;;;;;;;;;;;;;;;;12551269;28;20039;-75
2022/01/31 02:45:46;;;;;;;28.75;19.52;;;;;;;;;;12551193;28;20320;-74
2022/01/31 02:51:56;;;;;;;21.53;14.73;;;;;;;;;;12550975;28;20474;-74
2022/01/31 02:57:58;;;;;;;34.25;22.35;;;;;;;;;;12550447;28;20032;-74
2022/01/31 03:04:00;;;;;;;34.90;21.43;;;;;;;;;;12550275;28;20052;-75
2022/01/31 03:10:02;;;;;;;34.70;21.80;;;;;;;;;;12550794;28;20025;-74
2022/01/31 03:16:07;;;;;;;27.35;18.55;;;;;;;;;;12540450;28;20040;-74
2022/01/31 03:22:27;;;;;;;31.10;17.75;;;;;;;;;;12535922;28;20501;-75
2022/01/31 03:28:29;;;;;;;36.03;22.97;;;;;;;;;;12516820;28;20048;-74
2022/01/31 03:34:32;;;;;;;30.90;21.30;;;;;;;;;;12516291;28;20063;-74
2022/01/31 03:40:34;;;;;;;29.73;19.02;;;;;;;;;;12516042;28;20036;-74
2022/01/31 03:46:38;;;;;;;41.83;25.73;;;;;;;;;;12532024;28;20047;-74
2022/01/31 03:52:42;;;;;;;31.77;19.15;;;;;;;;;;12515600;28;20059;-74
2022/01/31 03:58:44;;;;;;;32.83;18.27;;;;;;;;;;12515961;28;20489;-74
2022/01/31 04:04:49;;;;;;;25.42;18.27;;;;;;;;;;12514993;28;20489;-74
2022/01/31 04:10:51;;;;;;;20.70;14.73;;;;;;;;;;12530719;28;20025;-74
2022/01/31 04:16:55;;;;;;;34.38;22.65;;;;;;;;;;12548899;28;20033;-74
2022/01/31 04:23:06;;;;;;;39.60;27.30;;;;;;;;;;12548158;28;20413;-74
2022/01/31 04:29:17;;;;;;;42.38;30.10;;;;;;;;;;12529069;28;20041;-74
2022/01/31 04:35:19;;;;;;;41.25;25.70;;;;;;;;;;12530421;28;20033;-74
2022/01/31 04:41:21;;;;;;;46.08;30.48;;;;;;;;;;12529503;28;20037;-74
2022/01/31 04:47:22;;;;;;;37.10;23.83;;;;;;;;;;12529145;28;20048;-74
2022/01/31 04:53:37;;;;;;;26.15;18.08;;;;;;;;;;12587501;28;20485;-73
2022/01/31 04:59:42;;;;;;;45.80;27.98;;;;;;;;;;12585945;28;20032;-74
2022/01/31 05:05:44;;;;;;;34.20;24.65;;;;;;;;;;12585879;28;20037;-74
2022/01/31 05:11:46;;;;;;;38.35;25.05;;;;;;;;;;12585355;28;20076;-74
2022/01/31 05:17:48;;;;;;;36.20;22.33;;;;;;;;;;12584738;28;20033;-74
2022/01/31 05:23:50;;;;;;;29.20;18.63;;;;;;;;;;12584548;28;20032;-74
2022/01/31 05:29:51;;;;;;;32.92;22.10;;;;;;;;;;12584212;28;20041;-74
2022/01/31 05:35:55;;;;;;;27.13;18.10;;;;;;;;;;12583985;28;20036;-74
2022/01/31 05:41:56;;;;;;;23.73;16.15;;;;;;;;;;12583854;28;20033;-74
2022/01/31 05:47:58;;;;;;;24.33;18.02;;;;;;;;;;12583341;28;20481;-74
2022/01/31 05:54:00;;;;;;;19.48;14.02;;;;;;;;;;12582799;28;20036;-75
2022/01/31 06:00:02;;;;;;;32.00;21.38;;;;;;;;;;12576925;28;20036;-75
2022/01/31 06:06:03;;;;;;;26.60;18.02;;;;;;;;;;12549887;28;20037;-75
2022/01/31 06:12:06;;;;;;;27.50;18.13;;;;;;;;;;12549254;28;20056;-74
2022/01/31 06:18:08;;;;;;;31.10;18.95;;;;;;;;;;12533599;28;20381;-75
2022/01/31 06:24:10;;;;;;;26.98;18.73;;;;;;;;;;12549057;28;20135;-75
2022/01/31 06:30:12;;;;;;;;;;;;;;;;;;12548719;28;20560;-74
2022/01/31 06:36:14;;;;;;;30.33;19.10;;;;;;;;;;12545784;28;20384;-74
2022/01/31 06:42:15;;;;;;;23.60;16.23;;;;;;;;;;12539264;28;20029;-77
2022/01/31 06:48:17;;;;;;;26.13;16.88;;;;;;;;;;12519973;28;20049;-77
2022/01/31 07:00:18;;;;;;;25.63;18.55;;;;;;;;;;12532475;28;20493;-74
2022/01/31 07:06:21;;;;;;;21.83;16.85;;;;;;;;;;12534585;28;20036;-74
2022/01/31 07:12:31;;;;;;;20.17;11.67;;;;;;;;;;12508063;28;20343;-76
2022/01/31 07:18:37;;;;;;;18.83;15.38;;;;;;;;;;12485867;28;20326;-76
2022/01/31 07:24:46;;;;;;;23.75;17.35;;;;;;;;;;12487797;28;20044;-76
2022/01/31 07:30:49;;;;;;;28.00;21.15;;;;;;;;;;12492876;28;20069;-75
2022/01/31 07:36:51;;;;;;;38.13;25.92;;;;;;;;;;12479236;28;20068;-75
2022/01/31 07:42:55;;;;;;;32.67;23.95;;;;;;;;;;12489003;28;20057;-75
2022/01/31 07:48:58;;;;;;;30.37;23.13;;;;;;;;;;12490699;28;20442;-77
2022/01/31 07:55:00;;;;;;;30.83;22.40;;;;;;;;;;12490994;28;20491;-76
2022/01/31 08:01:01;;;;;;;36.38;27.90;;;;;;;;;;12490630;28;20061;-77
2022/01/31 08:07:03;;;;;;;38.85;30.58;;;;;;;;;;12480907;28;20084;-77
2022/01/31 08:13:07;;;;;;;27.17;21.05;;;;;;;;;;12450964;28;20065;-76
2022/01/31 08:19:09;;;;;;;25.80;18.20;;;;;;;;;;12453297;28;20072;-76
2022/01/31 08:25:14;;;;;;;23.27;17.52;;;;;;;;;;12452249;28;20499;-75
2022/01/31 08:31:21;;;;;;;22.77;18.98;;;;;;;;;;12452629;28;20057;-76
2022/01/31 08:37:23;;;;;;;24.05;21.48;;;;;;;;;;12451651;28;20064;-75
2022/01/31 08:43:25;;;;;;;27.83;22.13;;;;;;;;;;12455801;28;20083;-76
2022/01/31 08:49:27;;;;;;;19.47;17.33;;;;;;;;;;12450648;28;20072;-76
2022/01/31 08:55:29;;;;;;;18.80;16.80;;;;;;;;;;12452346;28;20092;-74
2022/01/31 09:01:30;;;;;;;14.82;13.32;;;;;;;;;;12441799;28;20057;-75
2022/01/31 09:07:32;;;;;;;21.48;18.25;;;;;;;;;;12445145;28;20478;-75
2022/01/31 09:13:34;;;;;;;24.90;22.17;;;;;;;;;;12466176;28;20066;-76
2022/01/31 09:19:36;;;;;;;21.63;19.37;;;;;;;;;;12446924;28;20076;-75
2022/01/31 09:25:44;;;;;;;19.45;15.43;;;;;;;;;;12473272;28;20474;-76
2022/01/31 09:31:45;;;;;;;17.27;15.48;;;;;;;;;;12440967;28;20398;-74
2022/01/31 09:37:47;;;;;;;17.48;14.45;;;;;;;;;;12466825;28;20037;-77
2022/01/31 09:49:51;;;;;;;14.43;12.88;;;;;;;;;;12491290;28;20036;-77
2022/01/31 09:55:53;;;;;;;15.23;13.73;;;;;;;;;;12486911;28;20060;-77
2022/01/31 10:01:57;;;;;;;18.77;16.55;;;;;;;;;;12478337;28;20280;-75
2022/01/31 10:08:09;;;;;;;17.92;15.82;;;;;;;;;;12468639;28;20033;-75
2022/01/31 10:20:45;;;;;;;21.15;18.85;;;;;;;;;;12477565;28;20038;-75
2022/01/31 10:26:47;;;;;;;20.00;15.53;;;;;;;;;;12471722;28;20045;-76
2022/01/31 10:32:50;;;;;;;17.80;15.27;;;;;;;;;;12486913;28;20033;-75
2022/01/31 10:39:06;;;;;;;16.40;13.83;;;;;;;;;;12478797;28;20045;-76
2022/01/31 10:57:29;;;;;;;15.52;13.93;;;;;;;;;;12488981;28;20073;-76
2022/01/31 11:03:32;;;;;;;13.05;11.73;;;;;;;;;;12486734;28;20033;-75
2022/01/31 11:09:34;;;;;;;13.45;12.05;;;;;;;;;;12496289;28;20044;-76
2022/01/31 11:15:37;;;;;;;12.45;11.13;;;;;;;;;;12485610;28;20049;-74
2022/01/31 11:21:43;;;;;;;11.23;10.07;;;;;;;;;;12461594;28;20044;-80
2022/01/31 11:27:46;;;;;;;12.77;11.30;;;;;;;;;;12439118;28;20061;-81
2022/01/31 11:33:48;;;;;;;14.30;12.80;;;;;;;;;;12456515;28;20599;-80
2022/01/31 11:39:50;;;;;;;;;;;;;;;;;;12454974;28;20056;-75
2022/01/31 11:45:52;;;;;;;18.17;15.50;;;;;;;;;;12448207;28;19953;-76
2022/01/31 11:52:05;;;;;;;39.23;30.83;;;;;;;;;;12456918;28;20570;-75
2022/01/31 11:58:08;;;;;;;24.33;20.92;;;;;;;;;;12441258;28;20089;-81
2022/01/31 12:04:13;;;;;;;21.65;18.77;;;;;;;;;;12450937;28;20068;-80
2022/01/31 12:10:21;;;;;;;23.23;19.70;;;;;;;;;;12446221;28;20037;-77
2022/01/31 12:22:46;;;;;;;24.75;20.02;;;;;;;;;;12487751;28;20394;-75
2022/01/31 12:28:53;;;;;;;22.00;18.88;;;;;;;;;;12484979;28;20485;-79
2022/01/31 12:34:58;;;;;;;17.63;15.18;;;;;;;;;;12485287;28;20435;-76
2022/01/31 12:41:05;;;;;;;14.52;13.05;;;;;;;;;;12498690;28;20470;-75
2022/01/31 12:47:17;;;;;;;17.65;15.02;;;;;;;;;;12498497;28;20482;-76
2022/01/31 12:59:26;;;;;;;17.65;15.85;;;;;;;;;;12497556;28;20578;-76
2022/01/31 13:05:35;;;;;;;16.70;14.98;;;;;;;;;;12497323;28;20037;-76
2022/01/31 13:11:37;;;;;;;15.82;14.25;;;;;;;;;;12480329;28;20034;-76
2022/01/31 13:17:42;;;;;;;14.10;12.68;;;;;;;;;;12498187;28;20042;-76
2022/01/31 13:23:44;;;;;;;14.15;12.65;;;;;;;;;;12496551;28;20044;-77
2022/01/31 13:29:52;;;;;;;17.15;15.35;;;;;;;;;;12497120;28;20054;-76
2022/01/31 13:36:00;;;;;;;15.55;13.90;;;;;;;;;;12495421;28;20041;-76
2022/01/31 13:42:01;;;;;;;20.30;16.95;;;;;;;;;;12495735;28;20033;-76
2022/01/31 13:48:09;;;;;;;17.13;15.32;;;;;;;;;;12478821;28;20041;-76
2022/01/31 13:54:15;;;;;;;16.52;14.52;;;;;;;;;;12495608;28;20406;-77
2022/01/31 14:00:18;;;;;;;18.02;15.73;;;;;;;;;;12495420;28;20054;-76
2022/01/31 14:06:20;;;;;;;16.77;14.40;;;;;;;;;;12493933;28;20040;-76
2022/01/31 14:12:24;;;;;;;18.80;15.10;;;;;;;;;;12495438;28;20315;-76
2022/01/31 14:18:26;;;;;;;18.38;15.75;;;;;;;;;;12493891;28;20053;-76
2022/01/31 14:24:30;;;;;;;20.77;17.50;;;;;;;;;;12493555;28;20033;-76
2022/01/31 14:30:33;;;;;;;20.10;17.75;;;;;;;;;;12493985;28;20053;-75
2022/01/31 14:36:36;;;;;;;27.38;21.75;;;;;;;;;;12493381;28;20063;-76
2022/01/31 14:42:51;;;;;;;23.52;20.15;;;;;;;;;;12494178;28;20033;-76
2022/01/31 14:48:56;;;;;;;22.33;18.42;;;;;;;;;;12492943;28;20045;-76
2022/01/31 14:55:04;;;;;;;22.27;18.60;;;;;;;;;;12493914;28;20507;-76
2022/01/31 15:01:06;;;;;;;22.63;17.95;;;;;;;;;;12492986;28;20494;-75
2022/01/31 15:07:08;;;;;;;22.50;20.00;;;;;;;;;;12492265;28;20037;-75
2022/01/31 15:13:10;;;;;;;21.20;17.83;;;;;;;;;;12476241;28;20037;-77
2022/01/31 15:19:12;;;;;;;23.25;19.67;;;;;;;;;;12498272;28;20319;-75
2022/01/31 15:25:14;;;;;;;28.97;25.63;;;;;;;;;;12502303;28;20029;-76
2022/01/31 15:31:17;;;;;;;24.27;21.00;;;;;;;;;;12485351;28;20036;-76
2022/01/31 15:37:19;;;;;;;24.45;20.27;;;;;;;;;;12501268;28;20045;-76
2022/01/31 15:43:24;;;;;;;30.75;26.05;;;;;;;;;;12501264;28;20041;-76
2022/01/31 15:49:25;;;;;;;28.88;25.40;;;;;;;;;;12503089;28;20041;-76
2022/01/31 15:55:27;;;;;;;27.58;23.50;;;;;;;;;;12500137;28;20060;-77
2022/01/31 16:01:29;;;;;;;35.75;31.75;;;;;;;;;;12484744;28;20376;-76
2022/01/31 16:07:31;;;;;;;36.45;32.60;;;;;;;;;;12500455;28;20490;-76
2022/01/31 16:13:35;;;;;;;32.45;28.90;;;;;;;;;;12501565;28;20030;-76
2022/01/31 16:19:38;;;;;;;28.95;25.65;;;;;;;;;;12499834;28;20044;-75
2022/01/31 16:25:43;;;;;;;28.92;23.50;;;;;;;;;;12483474;28;20041;-76
2022/01/31 16:31:44;;;;;;;31.27;24.38;;;;;;;;;;12500079;28;20398;-75
2022/01/31 16:37:46;;;;;;;23.25;20.73;;;;;;;;;;12500339;28;20509;-75
2022/01/31 16:43:49;;;;;;;24.92;21.38;;;;;;;;;;12499680;28;20034;-76
2022/01/31 16:49:54;;;;;;;27.98;24.48;;;;;;;;;;12500681;28;20033;-76
2022/01/31 16:55:55;;;;;;;35.03;28.85;;;;;;;;;;12499254;28;20065;-76
2022/01/31 17:01:58;;;;;;;41.10;35.67;;;;;;;;;;12481472;28;20386;-76
2022/01/31 17:08:00;;;;;;;28.80;24.33;;;;;;;;;;12481446;28;20475;-76
2022/01/31 17:14:05;;;;;;;27.73;24.73;;;;;;;;;;12497721;28;20040;-76
2022/01/31 17:20:08;;;;;;;31.38;26.23;;;;;;;;;;12498170;28;20038;-76
2022/01/31 17:26:09;;;;;;;40.33;32.95;;;;;;;;;;12498283;28;20029;-76
2022/01/31 17:32:11;;;;;;;31.10;27.70;;;;;;;;;;12497629;28;20132;-76
2022/01/31 17:38:13;;;;;;;37.95;30.35;;;;;;;;;;12497665;28;20049;-76
2022/01/31 17:44:20;;;;;;;30.67;26.45;;;;;;;;;;12478816;28;20180;-76
2022/01/31 17:50:22;;;;;;;34.88;28.83;;;;;;;;;;12495325;28;20037;-75
2022/01/31 17:56:24;;;;;;;39.60;31.58;;;;;;;;;;12496453;28;20053;-75
2022/01/31 18:02:26;;;;;;;31.83;27.10;;;;;;;;;;12495257;28;20489;-75
2022/01/31 18:08:27;;;;;;;37.47;30.20;;;;;;;;;;12494896;28;20029;-75
2022/01/31 18:14:29;;;;;;;35.00;30.77;;;;;;;;;;12496018;28;20030;-75
2022/01/31 18:20:31;;;;;;;36.70;29.88;;;;;;;;;;12494285;28;20037;-76
2022/01/31 18:26:33;;;;;;;41.15;36.20;;;;;;;;;;12478265;28;20037;-76
2022/01/31 18:32:44;;;;;;;44.90;37.85;;;;;;;;;;12494098;28;20033;-76
2022/01/31 18:38:49;;;;;;;49.10;42.63;;;;;;;;;;12495250;28;20064;-75
2022/01/31 18:44:51;;;;;;;41.22;35.30;;;;;;;;;;12494944;28;20037;-75
2022/01/31 18:50:55;;;;;;;42.63;36.05;;;;;;;;;;12492886;28;20025;-76
2022/01/31 18:56:57;;;;;;;43.05;38.13;;;;;;;;;;12494070;28;20053;-76
2022/01/31 19:02:59;;;;;;;53.70;46.00;;;;;;;;;;12495165;28;20053;-76
2022/01/31 19:09:05;;;;;;;59.40;45.97;;;;;;;;;;12493072;28;20367;-75
2022/01/31 19:21:09;;;;;;;69.32;55.03;;;;;;;;;;12493811;28;20722;-75
2022/01/31 19:27:11;;;;;;;53.25;43.88;;;;;;;;;;12493092;28;20041;-75
2022/01/31 19:33:12;;;;;;;64.75;52.58;;;;;;;;;;12493450;28;20034;-76
2022/01/31 19:45:36;;;;;;;52.85;45.33;;;;;;;;;;12492261;28;20044;-76
2022/01/31 19:51:40;;;;;;;53.33;42.92;;;;;;;;;;12491683;28;20339;-76
2022/01/31 20:03:52;;;;;;;51.35;45.70;;;;;;;;;;12708431;27;20497;-75
2022/01/31 20:09:55;;;;;;;52.88;44.55;;;;;;;;;;12719542;28;20031;-75
2022/01/31 20:15:57;;;;;;;47.10;41.83;;;;;;;;;;12719402;28;20032;-75
2022/01/31 20:21:58;;;;;;;48.63;41.03;;;;;;;;;;12719490;28;20039;-76
2022/01/31 20:28:02;;;;;;;50.63;42.97;;;;;;;;;;12719114;27;20032;-76
2022/01/31 20:34:04;;;;;;;47.38;40.58;;;;;;;;;;12719041;28;20387;-75
2022/01/31 20:46:09;;;;;;;53.67;44.20;;;;;;;;;;12736554;28;20035;-76
2022/01/31 20:52:10;;;;;;;51.07;40.37;;;;;;;;;;12736117;28;20035;-76
2022/01/31 20:58:28;;;;;;;51.15;41.83;;;;;;;;;;12704537;27;20500;-74
2022/01/31 21:04:30;;;;;;;49.22;40.35;;;;;;;;;;12738485;28;20027;-75
2022/01/31 21:10:32;;;;;;;40.95;34.75;;;;;;;;;;12702321;28;20034;-75
2022/01/31 21:16:36;;;;;;;37.28;30.88;;;;;;;;;;12719421;28;20046;-75
2022/01/31 21:22:40;;;;;;;40.92;32.78;;;;;;;;;;12702343;27;20031;-75
2022/01/31 21:28:42;;;;;;;38.28;31.33;;;;;;;;;;12717155;28;20038;-75
2022/01/31 21:34:43;;;;;;;50.67;42.20;;;;;;;;;;12718452;28;20047;-75
2022/01/31 21:40:45;;;;;;;38.97;34.63;;;;;;;;;;12736877;28;20028;-75
2022/01/31 21:46:47;;;;;;;42.58;34.42;;;;;;;;;;12718435;28;20027;-76
2022/01/31 21:52:48;;;;;;;41.05;35.33;;;;;;;;;;12717703;27;20058;-76
2022/01/31 21:58:50;;;;;;;44.60;37.38;;;;;;;;;;12700679;28;20039;-76
2022/01/31 22:04:52;;;;;;;41.13;34.38;;;;;;;;;;12694574;28;20051;-76
2022/01/31 22:17:07;;;;;;;42.58;35.17;;;;;;;;;;12683005;28;20054;-76
2022/01/31 22:23:09;;;;;;;46.28;35.83;;;;;;;;;;12701149;28;20024;-76
2022/01/31 22:29:10;;;;;;;39.72;31.88;;;;;;;;;;12682553;28;20032;-76
2022/01/31 22:35:12;;;;;;;40.85;33.20;;;;;;;;;;12665253;28;20048;-75
2022/01/31 22:41:14;;;;;;;41.83;33.75;;;;;;;;;;12700167;28;20499;-76
2022/01/31 22:47:16;;;;;;;41.07;34.53;;;;;;;;;;12682191;28;20043;-76
2022/01/31 22:53:18;;;;;;;43.20;35.40;;;;;;;;;;12680861;28;20044;-76
2022/01/31 22:59:19;;;;;;;44.08;34.17;;;;;;;;;;12699466;28;20032;-76
2022/01/31 23:05:21;;;;;;;39.55;32.60;;;;;;;;;;12680730;28;20396;-76
2022/01/31 23:11:23;;;;;;;41.80;33.28;;;;;;;;;;12680216;28;20039;-76
2022/01/31 23:17:35;;;;;;;38.30;30.92;;;;;;;;;;12679038;28;20050;-76
2022/01/31 23:43:08;;;;;;;42.72;32.97;;;;;;;;;;12697204;28;20039;-76
